Time;durP1;ratioP1;P1;durP2;ratioP2;P2;SDS_P1;SDS_P2;PMS_P1;PMS_P2;Temp;Humidity;BMP_temperature;BMP_pressure;BME280_temperature;BME280_humidity;BME280_pressure;Samples;Min_cycle;Max_cycle;Signal;HPM_P1;HPM_P2
2021/12/10 00:03:58;;;;;;;16.57;10.97;;;16.60;49.00;;;;;;10490532;28;20674;-66
2021/12/10 00:09:25;;;;;;;13.90;10.47;;;16.60;49.00;;;;;;10491505;28;20215;-65
2021/12/10 00:14:48;;;;;;;14.73;10.40;;;16.60;48.80;;;;;;10496665;28;20239;-65
2021/12/10 00:20:11;;;;;;;17.27;10.30;;;16.60;48.50;;;;;;10495962;28;20213;-66
2021/12/10 00:25:39;;;;;;;13.27;9.00;;;16.60;48.50;;;;;;10497181;28;20192;-65
2021/12/10 00:31:18;;;;;;;13.13;9.30;;;16.60;48.60;;;;;;10497123;28;20610;-65
2021/12/10 00:36:41;;;;;;;13.63;9.47;;;16.60;48.60;;;;;;10490615;28;20215;-67
2021/12/10 00:42:08;;;;;;;13.90;8.97;;;16.60;48.50;;;;;;10497669;28;20220;-64
2021/12/10 00:47:31;;;;;;;14.07;9.43;;;16.60;48.40;;;;;;10479198;28;20193;-67
2021/12/10 00:52:54;;;;;;;13.03;9.30;;;16.60;48.50;;;;;;10488365;28;20216;-67
2021/12/10 00:58:18;;;;;;;12.17;8.97;;;16.60;48.50;;;;;;10495829;28;20196;-65
2021/12/10 01:03:47;;;;;;;11.53;8.60;;;16.60;48.60;;;;;;10496009;28;20188;-66
2021/12/10 01:09:15;;;;;;;12.27;8.70;;;16.60;48.60;;;;;;10476169;28;20700;-65
2021/12/10 01:14:58;;;;;;;12.90;8.07;;;16.60;48.60;;;;;;10476924;28;20213;-65
2021/12/10 01:26:11;;;;;;;13.70;8.23;;;16.50;48.80;;;;;;10454350;28;20226;-65
2021/12/10 01:31:35;;;;;;;10.70;7.73;;;16.50;48.90;;;;;;10468999;28;20209;-66
2021/12/10 01:36:57;;;;;;;11.73;7.77;;;16.50;48.90;;;;;;10496249;28;20204;-65
2021/12/10 01:42:33;;;;;;;12.63;7.87;;;16.50;48.90;;;;;;10495866;28;20216;-65
2021/12/10 01:48:01;;;;;;;10.67;7.53;;;16.50;49.00;;;;;;10469461;28;20181;-66
2021/12/10 01:53:26;;;;;;;12.30;7.03;;;16.50;48.90;;;;;;10484195;28;20204;-66
2021/12/10 01:58:49;;;;;;;10.43;7.00;;;16.50;48.90;;;;;;10495421;28;20220;-65
2021/12/10 02:04:17;;;;;;;10.43;7.00;;;16.50;48.90;;;;;;10484362;28;20188;-67
2021/12/10 02:09:39;;;;;;;11.27;7.30;;;16.50;48.60;;;;;;10493885;28;20213;-65
2021/12/10 02:15:03;;;;;;;9.57;6.83;;;16.50;48.30;;;;;;10483475;28;20552;-65
2021/12/10 02:20:31;;;;;;;9.67;6.93;;;16.60;48.40;;;;;;10491300;28;20287;-65
2021/12/10 02:25:55;;;;;;;8.97;6.43;;;16.50;48.60;;;;;;10491915;28;20180;-65
2021/12/10 02:31:17;;;;;;;8.67;6.10;;;16.50;48.40;;;;;;10492022;28;20270;-67
2021/12/10 02:36:42;;;;;;;9.13;6.47;;;16.50;48.60;;;;;;10491686;28;20283;-66
2021/12/10 02:42:06;;;;;;;8.63;6.80;;;16.50;48.50;;;;;;10492603;28;20314;-66
2021/12/10 02:47:28;;;;;;;9.70;6.37;;;16.50;49.10;;;;;;10471807;28;20659;-66
2021/12/10 02:52:51;;;;;;;8.57;5.73;;;16.50;48.60;;;;;;10490443;28;20642;-65
2021/12/10 02:58:14;;;;;;;8.67;5.90;;;16.50;48.70;;;;;;10493250;28;20184;-65
2021/12/10 03:03:38;;;;;;;9.40;5.83;;;16.50;48.80;;;;;;10491298;28;20210;-65
2021/12/10 03:09:00;;;;;;;9.00;5.30;;;16.40;48.80;;;;;;10491471;28;20215;-65
2021/12/10 03:14:25;;;;;;;7.83;5.10;;;16.50;48.90;;;;;;10485459;28;20208;-66
2021/12/10 03:19:48;;;;;;;8.93;5.50;;;16.40;48.90;;;;;;10482379;28;20585;-65
2021/12/10 03:25:13;;;;;;;6.70;4.90;;;16.40;48.90;;;;;;10501499;28;20656;-66
2021/12/10 03:30:40;;;;;;;7.60;4.67;;;16.40;48.70;;;;;;10501102;28;20212;-65
2021/12/10 03:36:02;;;;;;;10.30;4.93;;;16.50;48.40;;;;;;10480082;28;20686;-65
2021/12/10 03:41:25;;;;;;;8.23;4.80;;;16.50;48.40;;;;;;10458704;28;20247;-65
2021/12/10 03:46:52;;;;;;;8.17;5.00;;;16.50;48.30;;;;;;10475116;28;20192;-65
2021/12/10 03:52:14;;;;;;;6.63;4.37;;;16.50;48.40;;;;;;10498717;28;20201;-65
2021/12/10 03:57:37;;;;;;;7.27;4.67;;;16.50;48.40;;;;;;10461453;28;20216;-65
2021/12/10 04:03:01;;;;;;;7.07;4.47;;;16.50;48.30;;;;;;10469097;28;20242;-65
2021/12/10 04:08:24;;;;;;;6.30;4.20;;;16.50;48.20;;;;;;10499774;28;20200;-65
2021/12/10 04:13:50;;;;;;;6.43;3.80;;;16.50;47.90;;;;;;10498538;28;20212;-66
2021/12/10 04:19:15;;;;;;;6.47;3.77;;;16.50;48.00;;;;;;10498873;28;20209;-66
2021/12/10 04:24:39;;;;;;;7.83;4.03;;;16.50;48.10;;;;;;10498628;28;20196;-65
2021/12/10 04:30:02;;;;;;;6.37;3.93;;;16.50;48.30;;;;;;10498238;28;20219;-65
2021/12/10 04:35:25;;;;;;;6.33;4.43;;;16.50;48.10;;;;;;10498251;28;20212;-65
2021/12/10 04:40:50;;;;;;;6.03;3.87;;;16.50;47.90;;;;;;10547111;22;20223;-63
2021/12/10 04:46:12;;;;;;;5.13;3.50;;;16.60;47.70;;;;;;10540589;28;20248;-63
2021/12/10 04:51:40;;;;;;;5.97;3.33;;;16.80;47.30;;;;;;10498211;28;20620;-63
2021/12/10 04:57:04;;;;;;;4.67;2.83;;;16.90;47.40;;;;;;10495614;28;20343;-58
2021/12/10 05:02:27;;;;;;;5.60;3.27;;;16.90;47.30;;;;;;10494820;28;20201;-64
2021/12/10 05:07:51;;;;;;;5.37;3.30;;;17.00;47.00;;;;;;10494096;28;20214;-63
2021/12/10 05:13:13;;;;;;;5.17;3.50;;;17.00;46.50;;;;;;10494088;28;20200;-64
2021/12/10 05:18:39;;;;;;;5.37;3.20;;;17.00;46.50;;;;;;10498415;28;20223;-63
2021/12/10 05:24:04;;;;;;;5.33;3.03;;;17.00;46.50;;;;;;10494805;28;20654;-64
2021/12/10 05:29:27;;;;;;;5.00;2.93;;;16.90;46.70;;;;;;10500374;28;20228;-64
2021/12/10 05:34:49;;;;;;;6.17;3.03;;;16.90;46.70;;;;;;10493741;28;20228;-64
2021/12/10 05:40:16;;;;;;;5.30;3.13;;;17.00;46.60;;;;;;10493034;28;20593;-64
2021/12/10 05:45:38;;;;;;;4.43;2.93;;;17.10;46.70;;;;;;10500372;28;20207;-63
2021/12/10 05:51:01;;;;;;;5.20;3.27;;;17.10;46.40;;;;;;10506644;28;20568;-61
2021/12/10 05:56:25;;;;;;;6.10;3.40;;;17.10;46.40;;;;;;10534676;28;20219;-61
2021/12/10 06:01:47;;;;;;;4.23;3.03;;;17.10;46.40;;;;;;10496945;28;20196;-62
2021/12/10 06:07:10;;;;;;;5.00;4.00;;;17.20;46.50;;;;;;10490760;28;20415;-63
2021/12/10 06:12:33;;;;;;;7.17;3.87;;;17.50;45.20;;;;;;10490860;28;20197;-63
2021/12/10 06:17:56;;;;;;;5.07;3.57;;;17.30;45.50;;;;;;10492067;28;20298;-64
2021/12/10 06:23:18;;;;;;;7.43;4.40;;;17.20;45.90;;;;;;10491826;28;20193;-63
2021/12/10 06:28:44;;;;;;;5.70;3.50;;;17.10;45.80;;;;;;10490951;28;20582;-61
2021/12/10 06:34:06;;;;;;;5.93;3.87;;;17.00;46.10;;;;;;10491088;28;20188;-62
2021/12/10 06:39:29;;;;;;;4.83;3.50;;;16.90;46.60;;;;;;10491248;28;20732;-62
2021/12/10 06:44:52;;;;;;;5.47;3.40;;;16.80;46.70;;;;;;10494014;28;20219;-62
2021/12/10 06:50:16;;;;;;;3.90;2.87;;;16.80;47.00;;;;;;10496378;28;20227;-64
2021/12/10 06:55:39;;;;;;;5.87;3.87;;;16.70;47.40;;;;;;10499407;28;20233;-63
2021/12/10 07:01:07;;;;;;;6.93;4.30;;;16.70;47.60;;;;;;10499821;28;20196;-63
2021/12/10 07:06:29;;;;;;;4.87;3.47;;;16.70;47.70;;;;;;10533410;28;20238;-63
2021/12/10 07:11:53;;;;;;;5.57;3.77;;;16.60;47.70;;;;;;10540794;28;20192;-63
2021/12/10 07:17:16;;;;;;;3.90;3.10;;;16.60;47.80;;;;;;10498349;28;20220;-62
2021/12/10 07:22:39;;;;;;;14.53;3.70;;;16.60;47.80;;;;;;10519156;28;20708;-63
2021/12/10 07:28:01;;;;;;;5.80;3.90;;;16.60;47.70;;;;;;10497588;28;20217;-63
2021/12/10 07:33:24;;;;;;;6.43;4.57;;;16.60;47.30;;;;;;10498766;28;20196;-62
2021/12/10 07:39:24;;;;;;;7.20;4.60;;;16.80;47.10;;;;;;10527557;28;20437;-62
2021/12/10 07:44:46;;;;;;;6.67;4.33;;;17.50;45.20;;;;;;10515812;28;20199;-65
2021/12/10 07:50:13;;;;;;;5.07;3.60;;;17.20;45.80;;;;;;10485785;28;20354;-65
2021/12/10 07:55:39;;;;;;;11.13;4.10;;;17.10;46.20;;;;;;10516406;28;20235;-63
2021/12/10 08:01:03;;;;;;;19.47;5.10;;;17.00;46.70;;;;;;10522163;28;20679;-65
2021/12/10 08:06:27;;;;;;;9.03;4.17;;;17.00;46.70;;;;;;10545890;28;20223;-64
2021/12/10 08:11:51;;;;;;;12.30;4.23;;;16.90;46.90;;;;;;10552651;28;20195;-64
2021/12/10 08:17:13;;;;;;;13.80;4.57;;;16.80;47.20;;;;;;10550014;28;20229;-64
2021/12/10 08:22:36;;;;;;;14.03;4.43;;;16.80;47.40;;;;;;10547181;28;20653;-65
2021/12/10 08:28:00;;;;;;;9.50;4.47;;;16.80;47.60;;;;;;10564004;28;20207;-65
2021/12/10 08:33:23;;;;;;;8.47;4.13;;;16.80;47.90;;;;;;10548696;28;20564;-61
2021/12/10 08:38:46;;;;;;;9.20;3.97;;;16.70;47.90;;;;;;10541536;28;20704;-61
2021/12/10 08:44:12;;;;;;;9.23;4.10;;;16.70;47.90;;;;;;10553413;28;20198;-62
2021/12/10 08:49:34;;;;;;;8.07;4.47;;;16.70;48.00;;;;;;10542196;28;20803;-64
2021/12/10 08:54:56;;;;;;;7.73;4.27;;;16.60;47.80;;;;;;10513360;28;20251;-64
2021/12/10 09:00:20;;;;;;;7.43;4.33;;;16.70;47.70;;;;;;10495238;28;20589;-64
2021/12/10 09:05:42;;;;;;;7.50;4.43;;;16.70;47.40;;;;;;10494921;28;20227;-66
2021/12/10 09:11:05;;;;;;;6.90;4.20;;;16.80;47.10;;;;;;10494410;28;20937;-63
2021/12/10 09:16:30;;;;;;;4.93;3.33;;;16.80;46.90;;;;;;10528625;28;20312;-66
2021/12/10 09:21:53;;;;;;;5.03;3.30;;;16.90;47.20;;;;;;10490681;28;20205;-66
2021/12/10 09:27:16;;;;;;;4.60;3.53;;;17.00;47.30;;;;;;10493586;28;20590;-66
2021/12/10 09:32:39;;;;;;;5.13;3.80;;;17.00;47.00;;;;;;10495417;28;20197;-65
2021/12/10 09:38:02;;;;;;;6.53;4.23;;;17.00;46.30;;;;;;10493479;28;20220;-66
2021/12/10 09:43:24;;;;;;;7.10;4.60;;;17.10;46.30;;;;;;10519718;28;20213;-63
2021/12/10 09:48:48;;;;;;;6.70;4.57;;;17.00;46.10;;;;;;10550466;28;20213;-64
2021/12/10 09:54:13;;;;;;;5.73;4.33;;;17.00;46.40;;;;;;10512371;28;20211;-63
2021/12/10 09:59:38;;;;;;;6.43;5.03;;;17.00;46.20;;;;;;10489610;28;20540;-64
2021/12/10 10:05:05;;;;;;;5.50;4.57;;;17.80;43.80;;;;;;10551718;28;20336;-64
2021/12/10 10:10:29;;;;;;;4.70;3.80;;;17.30;45.00;;;;;;10576986;28;20202;-63
2021/12/10 10:15:56;;;;;;;7.13;4.07;;;17.10;45.70;;;;;;10575618;28;20215;-62
2021/12/10 10:21:24;;;;;;;5.73;4.30;;;17.00;46.50;;;;;;10576096;28;20199;-65
2021/12/10 10:26:49;;;;;;;6.27;3.83;;;17.00;46.50;;;;;;10576512;28;20207;-65
2021/12/10 10:32:16;;;;;;;5.97;4.30;;;17.00;46.70;;;;;;10576658;28;20560;-64
2021/12/10 10:37:40;;;;;;;6.83;3.70;;;17.00;46.30;;;;;;10575644;28;20294;-67
2021/12/10 10:43:02;;;;;;;6.60;3.70;;;17.00;45.40;;;;;;10582872;22;20228;-65
2021/12/10 10:48:26;;;;;;;5.97;4.23;;;17.00;45.40;;;;;;10505273;28;20196;-65
2021/12/10 10:53:54;;;;;;;6.17;4.10;;;16.90;45.50;;;;;;10493892;28;20220;-65
2021/12/10 10:59:19;;;;;;;5.60;3.70;;;16.90;45.20;;;;;;10493932;28;20227;-65
2021/12/10 11:04:43;;;;;;;5.00;3.90;;;16.90;45.30;;;;;;10480582;28;20192;-65
2021/12/10 11:10:08;;;;;;;4.37;3.47;;;16.90;45.40;;;;;;10492783;28;20216;-65
2021/12/10 11:15:30;;;;;;;6.53;4.30;;;16.90;45.90;;;;;;10484833;28;20679;-66
2021/12/10 11:20:52;;;;;;;4.77;3.47;;;16.90;45.40;;;;;;10485149;28;20227;-65
2021/12/10 11:26:16;;;;;;;4.43;3.40;;;16.90;45.30;;;;;;10493587;28;20642;-65
2021/12/10 11:31:38;;;;;;;4.70;2.97;;;16.90;45.80;;;;;;10483246;28;20227;-64
2021/12/10 11:37:00;;;;;;;5.87;3.67;;;16.90;46.20;;;;;;10478291;28;20223;-65
2021/12/10 11:42:41;;;;;;;4.40;3.27;;;16.90;46.30;;;;;;10482632;28;20229;-65
2021/12/10 11:48:11;;;;;;;5.20;3.10;;;16.90;46.30;;;;;;10467625;28;20270;-65
2021/12/10 11:53:45;;;;;;;4.90;3.27;;;16.90;46.40;;;;;;10492899;28;20734;-64
2021/12/10 11:59:13;;;;;;;5.73;3.90;;;16.90;45.20;;;;;;10493224;28;20212;-64
2021/12/10 12:04:40;;;;;;;4.93;3.50;;;16.90;45.00;;;;;;10493109;28;20196;-65
2021/12/10 12:10:11;;;;;;;5.37;3.30;;;16.80;45.10;;;;;;10490496;28;20208;-65
2021/12/10 12:15:38;;;;;;;4.83;3.43;;;16.70;45.50;;;;;;10492216;28;20208;-65
2021/12/10 12:21:37;;;;;;;4.53;3.30;;;16.70;45.70;;;;;;10492947;28;20568;-65
2021/12/10 12:26:46;;;;;;;5.57;3.00;;;16.60;45.80;;;;;;10492460;28;20201;-65
2021/12/10 12:32:13;;;;;;;4.27;2.97;;;16.50;46.70;;;;;;10499581;28;20216;-64
2021/12/10 12:37:35;;;;;;;5.03;3.27;;;16.50;46.20;;;;;;10499595;28;20218;-65
2021/12/10 12:43:04;;;;;;;4.60;3.07;;;16.50;46.40;;;;;;10484653;28;20220;-64
2021/12/10 12:48:27;;;;;;;3.37;2.60;;;16.40;46.60;;;;;;10487292;28;20528;-65
2021/12/10 12:53:51;;;;;;;3.43;2.80;;;16.50;46.70;;;;;;10499552;28;20587;-65
2021/12/10 12:59:14;;;;;;;4.23;3.20;;;16.50;46.50;;;;;;10499102;28;20216;-65
2021/12/10 13:04:40;;;;;;;3.37;2.60;;;16.50;46.60;;;;;;10500043;28;20278;-65
2021/12/10 13:10:05;;;;;;;3.40;2.57;;;16.60;47.00;;;;;;10497867;28;20683;-66
2021/12/10 13:15:29;;;;;;;4.17;2.90;;;16.70;47.10;;;;;;10498397;28;20192;-65
2021/12/10 13:20:53;;;;;;;4.23;2.90;;;16.70;46.30;;;;;;10488586;28;20658;-64
2021/12/10 13:26:15;;;;;;;5.30;3.43;;;16.80;46.40;;;;;;10485472;28;20185;-64
2021/12/10 13:31:39;;;;;;;4.43;2.93;;;16.80;46.20;;;;;;10456430;28;20221;-65
2021/12/10 13:37:07;;;;;;;4.73;3.07;;;16.80;46.20;;;;;;10456048;28;20683;-65
2021/12/10 13:42:30;;;;;;;4.43;2.80;;;16.80;46.10;;;;;;10425676;28;20216;-65
2021/12/10 13:48:02;;;;;;;4.33;3.20;;;16.90;45.50;;;;;;10480905;28;20268;-65
2021/12/10 13:53:27;;;;;;;4.20;2.73;;;16.90;45.50;;;;;;10491728;28;20268;-65
2021/12/10 13:58:53;;;;;;;4.23;2.87;;;16.90;45.70;;;;;;10496216;28;20562;-64
2021/12/10 14:04:17;;;;;;;4.63;3.07;;;16.90;45.50;;;;;;10495136;28;20575;-64
2021/12/10 14:09:48;;;;;;;5.60;2.97;;;16.90;45.70;;;;;;10495454;28;20192;-64
2021/12/10 14:15:18;;;;;;;5.03;3.17;;;16.90;46.10;;;;;;10495926;28;20323;-65
2021/12/10 14:20:44;;;;;;;5.93;3.37;;;16.80;46.20;;;;;;10481905;28;20223;-65
2021/12/10 14:26:14;;;;;;;5.13;3.60;;;16.90;45.80;;;;;;10495441;28;20196;-66
2021/12/10 14:31:40;;;;;;;4.97;3.37;;;16.90;45.90;;;;;;10485395;28;20706;-65
2021/12/10 14:37:08;;;;;;;3.87;3.10;;;16.90;46.00;;;;;;10494278;28;20215;-65
2021/12/10 14:42:31;;;;;;;3.97;3.00;;;16.90;46.20;;;;;;10493416;28;20579;-65
2021/12/10 14:48:08;;;;;;;3.77;2.77;;;16.90;46.30;;;;;;10492979;28;20554;-64
2021/12/10 14:53:34;;;;;;;4.17;2.73;;;16.90;46.40;;;;;;10494171;28;20213;-66
2021/12/10 14:59:16;;;;;;;4.37;2.53;;;16.90;46.20;;;;;;10493003;28;20208;-64
2021/12/10 15:04:45;;;;;;;4.50;2.80;;;16.90;46.30;;;;;;10493753;28;20210;-65
2021/12/10 15:10:21;;;;;;;3.93;3.00;;;16.90;46.00;;;;;;10485391;28;20215;-65
2021/12/10 15:15:59;;;;;;;3.37;2.70;;;16.90;45.90;;;;;;10412306;28;20270;-65
2021/12/10 15:21:29;;;;;;;4.67;3.43;;;16.90;46.00;;;;;;10441791;28;20854;-65
2021/12/10 15:27:00;;;;;;;6.67;4.87;;;16.90;46.00;;;;;;10450333;28;20557;-66
2021/12/10 15:32:26;;;;;;;6.68;5.32;;;16.90;46.10;;;;;;10469834;28;20794;-65
2021/12/10 15:37:51;;;;;;;5.10;4.30;;;17.10;45.80;;;;;;10470861;28;20227;-66
2021/12/10 15:43:22;;;;;;;6.30;3.90;;;17.00;45.30;;;;;;10481990;28;20240;-65
2021/12/10 15:48:48;;;;;;;4.90;4.00;;;17.00;45.50;;;;;;10457626;28;20205;-65
2021/12/10 15:54:15;;;;;;;5.70;4.70;;;16.90;45.50;;;;;;10478083;28;20228;-64
2021/12/10 15:59:44;;;;;;;5.30;4.20;;;17.00;45.00;;;;;;10460850;28;20607;-64
2021/12/10 16:05:10;;;;;;;6.23;4.10;;;16.90;45.00;;;;;;10478319;28;20250;-65
2021/12/10 16:10:35;;;;;;;5.03;4.30;;;16.90;45.30;;;;;;10480197;28;20691;-65
2021/12/10 16:16:02;;;;;;;5.30;4.50;;;16.90;45.40;;;;;;10467285;28;20204;-65
2021/12/10 16:21:29;;;;;;;6.57;4.90;;;16.90;44.90;;;;;;10475202;28;20529;-65
2021/12/10 16:26:54;;;;;;;6.57;4.77;;;17.00;44.90;;;;;;10472453;28;20197;-65
2021/12/10 16:32:19;;;;;;;8.00;6.57;;;16.90;45.30;;;;;;10478585;28;20224;-64
2021/12/10 16:37:44;;;;;;;7.77;6.27;;;16.90;45.20;;;;;;10480600;28;20208;-65
2021/12/10 16:43:09;;;;;;;7.63;5.47;;;16.90;44.90;;;;;;10469523;28;20239;-67
2021/12/10 16:48:34;;;;;;;8.00;5.80;;;16.90;45.20;;;;;;10472663;28;20711;-66
2021/12/10 16:54:05;;;;;;;7.80;5.97;;;16.90;45.60;;;;;;10469331;28;20774;-63
2021/12/10 16:59:29;;;;;;;8.33;6.10;;;16.90;45.20;;;;;;10470200;28;20216;-62
2021/12/10 17:04:56;;;;;;;7.93;5.70;;;16.90;45.00;;;;;;10469881;28;20232;-63
2021/12/10 17:10:27;;;;;;;9.80;6.60;;;16.90;45.30;;;;;;10455031;28;20224;-62
2021/12/10 17:15:50;;;;;;;8.50;6.33;;;16.90;45.10;;;;;;10446469;28;20560;-64
2021/12/10 17:21:15;;;;;;;9.00;6.27;;;16.90;45.40;;;;;;10442261;28;20229;-63
2021/12/10 17:31:49;;;;;;;10.00;7.17;;;16.90;45.40;;;;;;10385412;28;20299;-65
2021/12/10 17:37:15;;;;;;;10.83;7.53;;;16.90;44.90;;;;;;10368704;28;20222;-64
2021/12/10 17:42:38;;;;;;;10.53;7.20;;;16.90;44.70;;;;;;10360640;28;20199;-64
2021/12/10 17:48:02;;;;;;;8.80;7.03;;;16.90;44.90;;;;;;10359658;28;20206;-64
2021/12/10 17:53:24;;;;;;;10.00;7.37;;;16.90;45.00;;;;;;10378996;28;20195;-63
2021/12/10 17:58:51;;;;;;;10.10;7.77;;;16.90;44.80;;;;;;10357151;28;20237;-64
2021/12/10 18:04:15;;;;;;;11.40;7.83;;;16.90;45.00;;;;;;10354555;28;20188;-63
2021/12/10 18:09:39;;;;;;;10.13;7.03;;;16.90;45.30;;;;;;10359102;28;20600;-64
2021/12/10 18:15:07;;;;;;;9.53;6.77;;;16.90;45.50;;;;;;10349647;28;20693;-63
2021/12/10 18:20:36;;;;;;;10.97;7.73;;;16.90;45.70;;;;;;10356885;28;20222;-64
2021/12/10 18:26:04;;;;;;;12.60;8.13;;;16.90;45.20;;;;;;10361424;28;20579;-63
2021/12/10 18:31:29;;;;;;;12.70;8.37;;;16.90;45.00;;;;;;10353580;28;20219;-63
2021/12/10 18:36:53;;;;;;;14.20;9.57;;;16.90;45.20;;;;;;10361763;28;20225;-65
2021/12/10 18:42:18;;;;;;;15.20;11.13;;;17.00;45.10;;;;;;10365748;28;20520;-65
2021/12/10 18:47:44;;;;;;;14.63;10.20;;;17.10;45.20;;;;;;10368493;28;20275;-65
2021/12/10 18:53:10;;;;;;;14.27;9.83;;;17.10;44.70;;;;;;10344868;28;20202;-63
2021/12/10 18:58:40;;;;;;;14.97;10.27;;;17.10;44.80;;;;;;10362270;28;20601;-63
2021/12/10 19:04:16;;;;;;;15.10;10.10;;;17.10;44.90;;;;;;10343939;28;20682;-64
2021/12/10 19:09:42;;;;;;;16.70;11.20;;;17.10;45.10;;;;;;10348395;28;20219;-64
2021/12/10 19:15:12;;;;;;;17.50;11.50;;;17.00;45.00;;;;;;10364013;28;20190;-64
2021/12/10 19:20:37;;;;;;;14.40;10.10;;;17.00;45.40;;;;;;10369943;28;20222;-63
2021/12/10 19:26:05;;;;;;;18.27;12.95;;;16.90;45.70;;;;;;10349177;28;20419;-64
2021/12/10 19:31:31;;;;;;;15.07;10.80;;;17.30;45.00;;;;;;10392500;28;20233;-65
2021/12/10 19:36:57;;;;;;;13.93;10.38;;;16.90;45.90;;;;;;10353366;28;20808;-65
2021/12/10 19:42:24;;;;;;;15.17;9.33;;;17.50;46.00;;;;;;10365052;28;20713;-64
2021/12/10 19:47:51;;;;;;;12.60;9.47;;;17.10;46.70;;;;;;10361898;28;20415;-65
2021/12/10 19:53:16;;;;;;;12.13;8.20;;;17.80;45.30;;;;;;10358180;28;20431;-66
2021/12/10 19:58:50;;;;;;;10.73;7.40;;;17.30;46.70;;;;;;10380147;28;20272;-66
2021/12/10 20:04:12;;;;;;;10.53;7.07;;;17.10;47.70;;;;;;10368783;28;20199;-66
2021/12/10 20:09:39;;;;;;;10.37;7.17;;;17.00;48.30;;;;;;10348639;28;20214;-66
2021/12/10 20:15:09;;;;;;;9.10;6.20;;;17.00;48.60;;;;;;10356624;28;20202;-66
2021/12/10 20:20:35;;;;;;;10.57;7.10;;;16.90;48.80;;;;;;10324073;28;20223;-66
2021/12/10 20:26:04;;;;;;;10.03;6.27;;;16.90;49.00;;;;;;10357044;28;20214;-66
2021/12/10 20:31:34;;;;;;;10.20;6.77;;;16.90;49.10;;;;;;10359106;28;20230;-66
2021/12/10 20:37:00;;;;;;;9.10;6.77;;;16.90;49.20;;;;;;10357053;28;20199;-66
2021/12/10 20:42:25;;;;;;;8.73;7.00;;;16.90;49.40;;;;;;10366417;28;20693;-64
2021/12/10 20:47:52;;;;;;;10.03;6.80;;;16.90;49.60;;;;;;10371380;28;20218;-66
2021/12/10 20:53:21;;;;;;;7.60;6.00;;;16.90;49.60;;;;;;10371884;28;20198;-66
2021/12/10 20:58:47;;;;;;;9.43;6.40;;;16.90;49.70;;;;;;10373404;28;20214;-66
2021/12/10 21:04:15;;;;;;;10.47;6.57;;;16.90;49.80;;;;;;10375301;28;20673;-66
2021/12/10 21:09:41;;;;;;;8.83;6.60;;;16.90;49.90;;;;;;10375842;28;20210;-66
2021/12/10 21:15:12;;;;;;;8.47;5.80;;;16.90;50.00;;;;;;10374081;28;20187;-66
2021/12/10 21:20:43;;;;;;;8.63;6.87;;;16.90;50.10;;;;;;10373921;28;20222;-66
2021/12/10 21:26:09;;;;;;;8.10;6.23;;;16.90;50.10;;;;;;10373660;28;20198;-66
2021/12/10 21:31:36;;;;;;;8.63;6.27;;;16.90;50.20;;;;;;10373825;28;20210;-66
2021/12/10 21:42:44;;;;;;;7.63;6.23;;;16.90;50.40;;;;;;10371760;28;20573;-66
2021/12/10 21:48:07;;;;;;;8.83;6.30;;;16.90;50.50;;;;;;10372402;28;20570;-67
2021/12/10 21:53:32;;;;;;;7.63;5.90;;;16.90;50.50;;;;;;10373196;28;20198;-66
2021/12/10 21:58:57;;;;;;;9.53;6.23;;;16.80;50.60;;;;;;10375886;28;20213;-66
2021/12/10 22:04:27;;;;;;;8.17;5.90;;;16.80;50.70;;;;;;10393727;28;20202;-64
2021/12/10 22:09:53;;;;;;;7.80;6.13;;;16.80;50.70;;;;;;10372899;28;20217;-66
2021/12/10 22:15:20;;;;;;;7.70;6.20;;;16.80;50.80;;;;;;10373553;28;20190;-66
2021/12/10 22:20:48;;;;;;;11.43;6.17;;;16.80;51.40;;;;;;10373145;28;20222;-66
2021/12/10 22:26:16;;;;;;;7.70;5.93;;;16.80;50.90;;;;;;10373447;28;20237;-66
2021/12/10 22:31:41;;;;;;;8.77;6.00;;;16.80;51.00;;;;;;10400198;28;20306;-66
2021/12/10 22:37:08;;;;;;;8.23;6.20;;;16.80;51.00;;;;;;10372429;28;20641;-66
2021/12/10 22:42:35;;;;;;;10.50;6.87;;;16.80;51.10;;;;;;10410197;28;20266;-66
2021/12/10 22:48:01;;;;;;;7.57;6.00;;;16.80;51.10;;;;;;10404172;28;20262;-67
2021/12/10 22:53:30;;;;;;;7.63;6.17;;;16.80;51.10;;;;;;10372128;28;20195;-64
2021/12/10 22:58:58;;;;;;;7.87;6.20;;;16.80;51.20;;;;;;10391331;28;20209;-67
2021/12/10 23:04:27;;;;;;;8.53;6.37;;;16.80;51.30;;;;;;10372303;28;20920;-66
2021/12/10 23:09:51;;;;;;;8.63;6.80;;;16.80;51.30;;;;;;10379915;28;20217;-66
2021/12/10 23:15:20;;;;;;;8.10;6.20;;;16.80;51.30;;;;;;10410982;28;20256;-66
2021/12/10 23:21:00;;;;;;;7.87;6.03;;;16.80;51.40;;;;;;10410826;28;20580;-66
2021/12/10 23:26:24;;;;;;;9.63;6.20;;;16.80;51.50;;;;;;10410486;28;20224;-65
2021/12/10 23:31:50;;;;;;;8.23;6.13;;;16.80;51.50;;;;;;10405319;28;20213;-66
2021/12/10 23:37:13;;;;;;;7.90;6.03;;;16.70;51.40;;;;;;10369783;28;20215;-66
2021/12/10 23:42:39;;;;;;;9.63;6.40;;;16.70;51.50;;;;;;10397505;28;20221;-66
2021/12/10 23:48:04;;;;;;;9.43;6.67;;;16.70;51.50;;;;;;10409454;28;20201;-66
2021/12/10 23:53:33;;;;;;;9.03;6.57;;;16.70;51.50;;;;;;10410124;28;20703;-66
2021/12/10 23:59:00;;;;;;;8.77;6.53;;;16.80;51.60;;;;;;10410385;28;20265;-66
